Time;durP1;ratioP1;P1;durP2;ratioP2;P2;SDS_P1;SDS_P2;PMS_P1;PMS_P2;Temp;Humidity;BMP_temperature;BMP_pressure;BME280_temperature;BME280_humidity;BME280_pressure;Samples;Min_cycle;Max_cycle;Signal;HPM_P1;HPM_P2
2022/08/24 00:01:07;;;;;;;50.05;43.58;;;19.40;99.90;;;;;;5042573;28;20158;-92
2022/08/24 00:03:33;;;;;;;52.03;45.15;;;19.40;99.90;;;;;;5042297;28;20055;-91
2022/08/24 00:05:59;;;;;;;53.45;46.28;;;19.30;99.90;;;;;;5042623;28;20044;-91
2022/08/24 00:08:25;;;;;;;56.63;48.42;;;19.30;99.90;;;;;;5074924;28;20055;-91
2022/08/24 00:10:50;;;;;;;60.38;49.85;;;19.20;99.90;;;;;;5057984;28;20520;-92
2022/08/24 00:13:16;;;;;;;61.08;51.15;;;19.20;99.90;;;;;;5041855;28;20476;-91
2022/08/24 00:15:42;;;;;;;58.85;51.28;;;19.20;99.90;;;;;;5058321;28;20036;-91
2022/08/24 00:18:07;;;;;;;65.78;53.15;;;19.20;99.90;;;;;;5075293;28;20051;-91
2022/08/24 00:20:33;;;;;;;60.97;53.60;;;19.20;99.90;;;;;;5058344;28;20063;-92
2022/08/24 00:22:59;;;;;;;63.28;52.03;;;19.10;99.90;;;;;;5075114;28;20047;-91
2022/08/24 00:25:25;;;;;;;64.22;53.22;;;19.10;99.90;;;;;;5041204;28;20048;-91
2022/08/24 00:27:51;;;;;;;66.05;55.03;;;19.00;99.90;;;;;;5075217;28;20134;-92
2022/08/24 00:30:17;;;;;;;69.57;54.53;;;19.00;99.90;;;;;;5041442;28;20376;-91
2022/08/24 00:32:44;;;;;;;67.05;54.50;;;19.00;99.90;;;;;;5041647;28;20044;-91
2022/08/24 00:35:10;;;;;;;73.00;55.88;;;19.00;99.90;;;;;;5041906;28;20097;-92
2022/08/24 00:37:36;;;;;;;72.97;56.88;;;19.00;99.90;;;;;;5074712;28;20500;-91
2022/08/24 00:40:12;;;;;;;65.47;54.10;;;18.90;99.90;;;;;;5041081;28;20197;-91
2022/08/24 00:42:38;;;;;;;77.43;57.22;;;19.00;99.90;;;;;;5058205;28;20174;-91
2022/08/24 00:45:05;;;;;;;69.82;56.33;;;19.00;99.90;;;;;;5073570;28;20071;-90
2022/08/24 00:47:37;;;;;;;69.35;56.22;;;19.00;99.90;;;;;;5080268;28;20042;-90
2022/08/24 00:50:05;;;;;;;72.72;56.83;;;19.00;99.90;;;;;;5063020;28;20092;-90
2022/08/24 00:52:38;;;;;;;74.60;58.03;;;19.00;99.90;;;;;;5050834;28;20048;-90
2022/08/24 00:55:16;;;;;;;75.50;57.53;;;18.90;99.90;;;;;;5074240;28;20051;-92
2022/08/24 00:57:43;;;;;;;72.43;56.47;;;18.90;99.90;;;;;;5042260;28;20048;-91
2022/08/24 01:00:18;;;;;;;70.43;57.40;;;18.90;99.90;;;;;;5025236;28;20124;-92
2022/08/24 01:02:47;;;;;;;68.50;55.75;;;18.90;99.90;;;;;;5042214;28;20109;-92
2022/08/24 01:05:14;;;;;;;70.57;57.10;;;18.80;99.90;;;;;;5042086;28;20078;-92
2022/08/24 01:07:40;;;;;;;75.97;57.75;;;18.80;99.90;;;;;;5057468;28;20130;-91
2022/08/24 01:10:11;;;;;;;71.20;55.88;;;18.80;99.90;;;;;;5057704;28;20464;-91
2022/08/24 01:12:37;;;;;;;64.88;52.10;;;18.80;99.90;;;;;;5057654;28;20051;-92
2022/08/24 01:15:05;;;;;;;66.95;55.03;;;18.80;99.90;;;;;;5041258;28;20047;-90
2022/08/24 01:20:15;;;;;;;64.43;51.45;;;18.80;99.90;;;;;;5046777;28;20052;-92
2022/08/24 01:22:41;;;;;;;63.78;51.88;;;18.70;99.90;;;;;;5040850;28;20128;-91
2022/08/24 01:25:07;;;;;;;62.00;51.28;;;18.70;99.90;;;;;;5057722;28;20052;-90
2022/08/24 01:27:34;;;;;;;60.15;51.75;;;18.70;99.90;;;;;;5040916;28;20100;-90
2022/08/24 01:30:02;;;;;;;61.97;50.90;;;18.60;99.90;;;;;;5041079;28;20052;-90
2022/08/24 01:32:27;;;;;;;64.57;52.20;;;18.60;99.90;;;;;;5040386;28;20098;-91
2022/08/24 01:34:54;;;;;;;62.80;50.78;;;18.60;99.90;;;;;;5074613;28;20083;-92
2022/08/24 01:37:20;;;;;;;60.38;50.65;;;18.50;99.90;;;;;;5041452;28;20070;-92
2022/08/24 01:39:47;;;;;;;68.20;51.80;;;18.50;99.90;;;;;;5040474;28;20060;-91
2022/08/24 01:42:13;;;;;;;58.78;48.70;;;18.40;99.90;;;;;;5024689;28;20143;-91
2022/08/24 01:44:39;;;;;;;66.63;52.05;;;18.40;99.90;;;;;;5040514;28;20200;-91
2022/08/24 01:47:06;;;;;;;71.57;54.50;;;18.40;99.90;;;;;;5024438;28;20040;-90
2022/08/24 01:49:33;;;;;;;63.65;52.05;;;18.40;99.90;;;;;;5040325;28;20399;-91
2022/08/24 01:51:59;;;;;;;66.43;53.20;;;18.40;99.90;;;;;;5041154;28;20048;-92
2022/08/24 01:54:25;;;;;;;63.47;50.78;;;18.40;99.90;;;;;;5057626;28;20051;-92
2022/08/24 01:56:51;;;;;;;65.50;52.95;;;18.80;99.90;;;;;;5040251;28;20131;-91
2022/08/24 01:59:18;;;;;;;69.25;53.08;;;18.30;99.90;;;;;;5040797;28;20132;-90
2022/08/24 02:01:47;;;;;;;68.68;53.78;;;18.20;99.90;;;;;;5024136;28;20052;-91
2022/08/24 02:04:13;;;;;;;75.95;54.92;;;18.20;99.90;;;;;;5041049;28;20505;-91
2022/08/24 02:06:39;;;;;;;68.30;54.10;;;18.20;99.90;;;;;;5056529;28;20050;-91
2022/08/24 02:09:04;;;;;;;78.20;58.55;;;18.20;99.90;;;;;;5073899;28;20043;-91
2022/08/24 02:11:30;;;;;;;68.88;55.47;;;18.20;99.90;;;;;;5057016;28;20050;-92
2022/08/24 02:13:56;;;;;;;76.07;59.13;;;18.20;99.90;;;;;;5057199;28;20135;-92
2022/08/24 02:16:22;;;;;;;73.55;56.80;;;18.20;99.90;;;;;;5040093;28;20044;-91
2022/08/24 02:18:48;;;;;;;74.55;57.75;;;18.20;99.90;;;;;;5073409;28;20512;-92
2022/08/24 02:21:15;;;;;;;80.82;58.95;;;18.20;99.90;;;;;;5073768;28;20059;-92
2022/08/24 02:23:41;;;;;;;82.75;59.92;;;18.20;99.90;;;;;;5040190;28;20048;-91
2022/08/24 02:26:07;;;;;;;77.22;58.63;;;18.30;99.90;;;;;;5025609;28;20050;-91
2022/08/24 02:28:34;;;;;;;73.45;57.70;;;18.30;99.90;;;;;;5058279;28;20087;-91
2022/08/24 02:31:00;;;;;;;84.90;61.92;;;18.30;99.90;;;;;;5058370;28;20160;-92
2022/08/24 02:33:26;;;;;;;77.22;59.03;;;18.30;99.90;;;;;;5047991;28;20051;-92
2022/08/24 02:35:53;;;;;;;71.78;55.72;;;18.20;99.90;;;;;;5070929;28;20127;-91
2022/08/24 02:38:19;;;;;;;79.03;57.50;;;18.20;99.90;;;;;;5050421;28;20050;-91
2022/08/24 02:40:45;;;;;;;74.28;56.42;;;18.20;99.90;;;;;;5047731;28;20052;-91
2022/08/24 02:43:11;;;;;;;73.53;55.78;;;18.20;99.90;;;;;;5067351;28;20050;-91
2022/08/24 02:45:41;;;;;;;69.40;54.25;;;18.10;99.90;;;;;;5081045;28;20051;-91
2022/08/24 02:48:07;;;;;;;72.32;54.47;;;18.00;99.90;;;;;;5045085;28;20048;-91
2022/08/24 02:50:36;;;;;;;70.80;54.00;;;18.00;99.90;;;;;;5077620;28;20083;-91
2022/08/24 02:53:02;;;;;;;70.38;55.17;;;18.00;99.90;;;;;;5044986;28;20059;-91
2022/08/24 02:55:27;;;;;;;76.07;57.13;;;17.90;99.90;;;;;;5077729;28;20052;-92
2022/08/24 02:57:53;;;;;;;71.85;54.42;;;17.90;99.90;;;;;;5077805;28;20043;-91
2022/08/24 03:00:20;;;;;;;72.53;54.10;;;17.90;99.90;;;;;;5060766;28;20052;-92
2022/08/24 03:02:45;;;;;;;74.78;57.25;;;17.90;99.90;;;;;;5043318;28;20082;-91
2022/08/24 03:05:11;;;;;;;74.55;56.28;;;17.90;99.90;;;;;;5076768;28;20132;-92
2022/08/24 03:07:37;;;;;;;72.43;54.65;;;17.90;99.90;;;;;;5027231;28;20071;-91
2022/08/24 03:10:04;;;;;;;72.25;54.72;;;17.90;99.90;;;;;;5076936;28;20048;-91
2022/08/24 03:12:30;;;;;;;72.90;54.85;;;17.90;99.90;;;;;;5093655;28;20144;-91
2022/08/24 03:14:56;;;;;;;70.32;53.80;;;17.90;99.90;;;;;;5059728;28;20067;-90
2022/08/24 03:17:22;;;;;;;66.80;52.30;;;17.80;99.90;;;;;;5059989;28;20040;-91
2022/08/24 03:19:49;;;;;;;72.30;54.65;;;17.80;99.90;;;;;;5059670;28;20052;-92
2022/08/24 03:22:15;;;;;;;70.93;54.10;;;17.80;99.90;;;;;;5076711;28;20121;-91
2022/08/24 03:24:40;;;;;;;72.13;53.95;;;17.80;99.90;;;;;;5059651;28;20319;-91
2022/08/24 03:27:06;;;;;;;69.47;52.50;;;17.70;99.90;;;;;;5043468;28;20131;-91
2022/08/24 03:29:33;;;;;;;69.32;51.65;;;17.70;99.90;;;;;;5042532;28;20495;-91
2022/08/24 03:31:59;;;;;;;69.18;51.08;;;17.70;99.90;;;;;;5028429;28;20357;-91
2022/08/24 03:34:25;;;;;;;70.82;51.92;;;17.60;99.90;;;;;;5043297;28;20519;-91
2022/08/24 03:36:50;;;;;;;64.53;51.58;;;17.60;99.90;;;;;;5076047;28;20135;-91
2022/08/24 03:39:16;;;;;;;68.72;52.58;;;17.60;99.90;;;;;;5059099;28;20105;-91
2022/08/24 03:41:42;;;;;;;71.63;52.28;;;17.60;99.90;;;;;;5059191;28;20051;-91
2022/08/24 03:44:07;;;;;;;69.95;53.42;;;17.60;99.90;;;;;;5059662;28;20059;-91
2022/08/24 03:46:35;;;;;;;64.45;51.63;;;17.60;99.90;;;;;;5059667;28;20484;-92
2022/08/24 03:49:03;;;;;;;69.68;50.95;;;17.60;99.90;;;;;;5059479;28;20069;-92
2022/08/24 03:51:29;;;;;;;68.00;52.40;;;17.60;99.90;;;;;;5042927;28;20101;-91
2022/08/24 03:53:55;;;;;;;74.78;52.83;;;17.60;99.90;;;;;;5042808;28;20055;-91
2022/08/24 03:56:21;;;;;;;70.85;51.90;;;17.60;99.90;;;;;;5058508;28;20083;-91
2022/08/24 03:58:47;;;;;;;65.38;50.25;;;17.60;99.90;;;;;;5059067;28;20083;-91
2022/08/24 04:01:13;;;;;;;71.10;51.65;;;17.60;99.90;;;;;;5055813;28;20044;-90
2022/08/24 04:03:42;;;;;;;68.70;50.80;;;17.50;99.90;;;;;;5064394;28;20031;-90
2022/08/24 04:06:08;;;;;;;63.28;48.25;;;17.50;99.90;;;;;;5081735;28;20028;-91
2022/08/24 04:08:33;;;;;;;64.85;49.15;;;17.50;99.90;;;;;;5058025;28;20105;-91
2022/08/24 04:10:59;;;;;;;63.67;50.10;;;17.50;99.90;;;;;;5042181;28;20477;-91
2022/08/24 04:13:25;;;;;;;63.55;49.22;;;17.50;99.90;;;;;;5058727;28;20136;-91
2022/08/24 04:15:51;;;;;;;61.05;47.90;;;17.40;99.90;;;;;;5075082;28;20127;-91
2022/08/24 04:18:18;;;;;;;58.90;46.00;;;17.40;99.90;;;;;;5025684;28;20062;-91
2022/08/24 04:20:43;;;;;;;61.53;48.53;;;17.40;99.90;;;;;;5042763;28;20056;-91
2022/08/24 04:23:10;;;;;;;61.72;48.60;;;17.40;99.90;;;;;;5025548;28;20431;-90
2022/08/24 04:25:43;;;;;;;64.35;49.60;;;17.40;99.90;;;;;;5058485;28;20051;-91
2022/08/24 04:28:09;;;;;;;61.38;47.05;;;17.40;99.90;;;;;;5058276;28;20079;-92
2022/08/24 04:30:39;;;;;;;60.67;48.20;;;17.40;99.90;;;;;;5074939;28;20086;-91
2022/08/24 04:33:05;;;;;;;63.38;48.80;;;17.40;99.90;;;;;;5057918;28;20078;-91
2022/08/24 04:35:31;;;;;;;56.78;47.03;;;17.30;99.90;;;;;;5075110;28;20123;-91
2022/08/24 04:37:56;;;;;;;59.05;45.20;;;17.30;99.90;;;;;;5058266;28;20135;-91
2022/08/24 04:40:23;;;;;;;58.70;46.47;;;17.30;99.90;;;;;;5057914;28;20098;-91
2022/08/24 04:42:49;;;;;;;65.18;48.83;;;17.30;99.90;;;;;;5058408;28;20491;-91
2022/08/24 04:45:15;;;;;;;57.15;45.35;;;17.30;99.90;;;;;;5058603;28;20067;-91
2022/08/24 04:47:43;;;;;;;62.72;46.78;;;17.30;99.90;;;;;;5074967;28;20480;-92
2022/08/24 04:50:09;;;;;;;59.70;46.25;;;17.30;99.90;;;;;;5057755;28;20901;-92
2022/08/24 04:52:35;;;;;;;58.25;45.65;;;17.30;99.90;;;;;;5058138;28;20046;-91
2022/08/24 04:55:01;;;;;;;57.25;45.95;;;17.40;99.90;;;;;;5057213;28;20513;-91
2022/08/24 04:57:27;;;;;;;64.32;48.88;;;17.40;99.90;;;;;;5057833;28;20135;-91
2022/08/24 04:59:56;;;;;;;62.13;49.65;;;17.60;99.90;;;;;;5057536;28;20050;-91
2022/08/24 05:02:22;;;;;;;62.92;46.22;;;17.80;99.90;;;;;;5057914;28;20099;-92
2022/08/24 05:04:47;;;;;;;60.60;46.78;;;18.20;99.90;;;;;;5059071;28;20079;-92
2022/08/24 05:07:13;;;;;;;55.03;45.28;;;18.50;99.90;;;;;;5042943;28;20059;-91
2022/08/24 05:09:39;;;;;;;52.25;42.33;;;18.70;99.90;;;;;;5059261;28;20040;-92
2022/08/24 05:12:04;;;;;;;52.92;42.47;;;18.70;99.90;;;;;;5076248;28;20134;-91
2022/08/24 05:14:30;;;;;;;49.83;41.10;;;18.70;99.90;;;;;;5075403;28;20056;-91
2022/08/24 05:16:56;;;;;;;50.58;42.97;;;18.80;99.90;;;;;;5057426;28;20090;-92
2022/08/24 05:19:22;;;;;;;48.95;40.97;;;18.90;99.90;;;;;;5057531;28;20204;-92
2022/08/24 05:21:48;;;;;;;45.15;38.20;;;19.20;99.90;;;;;;5041183;28;20453;-91
2022/08/24 05:24:13;;;;;;;48.53;39.33;;;19.60;99.90;;;;;;5058089;28;20143;-91
2022/08/24 05:26:39;;;;;;;43.42;36.42;;;20.10;99.90;;;;;;5042110;28;20403;-91
2022/08/24 05:29:05;;;;;;;41.53;35.40;;;20.60;99.90;;;;;;5024355;28;20131;-91
2022/08/24 05:31:31;;;;;;;36.90;32.80;;;20.90;99.90;;;;;;5073871;28;20044;-91
2022/08/24 05:33:58;;;;;;;37.50;33.53;;;21.40;99.90;;;;;;5074107;28;20398;-91
2022/08/24 05:36:28;;;;;;;36.55;32.33;;;21.70;99.90;;;;;;5076647;28;20522;-92
2022/08/24 05:38:54;;;;;;;35.85;31.85;;;22.20;99.90;;;;;;5088345;28;20051;-91
2022/08/24 05:41:20;;;;;;;34.90;31.13;;;22.40;99.90;;;;;;5071075;28;20075;-90
2022/08/24 05:43:46;;;;;;;34.38;30.83;;;22.70;99.90;;;;;;5090200;28;20045;-90
2022/08/24 05:46:12;;;;;;;32.00;28.80;;;23.00;99.90;;;;;;5093068;28;20124;-90
2022/08/24 05:48:38;;;;;;;33.42;28.80;;;23.30;99.90;;;;;;5091296;28;20054;-90
2022/08/24 05:51:04;;;;;;;32.15;28.85;;;23.80;99.90;;;;;;5085852;28;20043;-90
2022/08/24 05:53:30;;;;;;;32.40;29.20;;;24.10;99.90;;;;;;5079002;28;20135;-91
2022/08/24 05:55:56;;;;;;;33.03;29.55;;;23.90;99.90;;;;;;5073824;28;20044;-91
2022/08/24 05:58:21;;;;;;;33.22;29.90;;;24.40;99.90;;;;;;5054400;28;20507;-91
2022/08/24 06:00:48;;;;;;;32.83;29.23;;;24.40;99.90;;;;;;5055068;28;20044;-91
2022/08/24 06:03:14;;;;;;;32.45;29.05;;;24.90;99.90;;;;;;5083785;28;20028;-91
2022/08/24 06:05:40;;;;;;;31.83;28.73;;;25.20;99.90;;;;;;5094263;28;20048;-90
2022/08/24 06:08:06;;;;;;;34.53;31.02;;;25.50;99.90;;;;;;5077151;28;20020;-94
2022/08/24 06:10:37;;;;;;;33.97;30.48;;;25.80;99.90;;;;;;5076170;28;20101;-94
2022/08/24 06:13:04;;;;;;;39.00;35.13;;;25.90;99.90;;;;;;5054826;28;20529;-93
2022/08/24 06:15:29;;;;;;;35.85;31.88;;;26.40;99.90;;;;;;5054213;28;20049;-94
2022/08/24 06:17:55;;;;;;;37.35;33.40;;;26.40;99.90;;;;;;5070572;28;20143;-92
2022/08/24 06:20:21;;;;;;;38.05;34.13;;;26.60;99.90;;;;;;5057483;28;20045;-94
2022/08/24 06:22:46;;;;;;;37.55;33.67;;;26.70;99.90;;;;;;5074543;28;20041;-95
2022/08/24 06:27:56;;;;;;;38.08;34.17;;;27.20;99.90;;;;;;5074138;28;20052;-93
2022/08/24 06:30:22;;;;;;;35.28;31.73;;;27.10;99.90;;;;;;5057170;28;20041;-94
2022/08/24 06:32:48;;;;;;;37.20;33.55;;;27.70;99.90;;;;;;5058041;28;20049;-94
2022/08/24 06:35:13;;;;;;;34.53;30.77;;;28.40;99.90;;;;;;5074065;28;20036;-94
2022/08/24 06:37:39;;;;;;;37.17;33.38;;;27.70;99.90;;;;;;5074337;28;20060;-94
2022/08/24 06:40:06;;;;;;;33.88;30.60;;;27.90;99.90;;;;;;5073619;28;20487;-93
2022/08/24 06:42:33;;;;;;;30.92;27.85;;;28.40;99.90;;;;;;5074159;28;20052;-94
2022/08/24 06:44:58;;;;;;;31.52;28.42;;;29.00;99.90;;;;;;5040977;28;20395;-91
2022/08/24 06:47:24;;;;;;;32.42;29.08;;;28.20;99.90;;;;;;5073674;28;20138;-88
2022/08/24 06:49:50;;;;;;;29.17;26.17;;;28.20;99.90;;;;;;5057400;28;20052;-92
2022/08/24 06:52:15;;;;;;;29.08;25.85;;;28.30;99.90;;;;;;5039932;28;20499;-91
2022/08/24 06:54:41;;;;;;;28.77;26.08;;;28.40;99.90;;;;;;5074359;28;20091;-93
2022/08/24 06:57:07;;;;;;;27.42;24.77;;;28.80;99.90;;;;;;5073870;28;20052;-93
2022/08/24 06:59:33;;;;;;;26.80;23.98;;;28.90;99.90;;;;;;5059024;28;20396;-93
2022/08/24 07:02:01;;;;;;;26.27;23.67;;;28.70;99.90;;;;;;5058726;28;20412;-93
2022/08/24 07:04:26;;;;;;;29.33;26.48;;;28.70;99.90;;;;;;5076211;28;20102;-92
2022/08/24 07:06:53;;;;;;;31.52;28.38;;;29.30;99.90;;;;;;5075411;28;20040;-89
2022/08/24 07:09:19;;;;;;;30.42;27.25;;;29.50;99.90;;;;;;5073003;28;20040;-91
2022/08/24 07:11:44;;;;;;;32.83;29.10;;;29.90;99.90;;;;;;5091827;28;20045;-91
2022/08/24 07:14:10;;;;;;;31.40;28.25;;;30.80;99.90;;;;;;5094427;28;20128;-93
2022/08/24 07:16:36;;;;;;;26.98;24.30;;;30.70;99.90;;;;;;5081884;28;20084;-91
2022/08/24 07:19:02;;;;;;;19.92;17.77;;;30.80;99.90;;;;;;5073191;28;20040;-91
2022/08/24 07:21:28;;;;;;;24.45;21.83;;;31.20;99.90;;;;;;5056066;28;20514;-90
2022/08/24 07:23:55;;;;;;;23.33;20.85;;;30.20;99.90;;;;;;5072929;28;20044;-88
2022/08/24 07:26:21;;;;;;;17.70;16.05;;;30.60;99.90;;;;;;5073197;28;20053;-95
2022/08/24 07:28:50;;;;;;;18.30;16.40;;;30.20;99.90;;;;;;5073337;28;20127;-95
2022/08/24 07:31:16;;;;;;;17.33;15.73;;;30.20;99.90;;;;;;5055973;28;20056;-93
2022/08/24 07:33:41;;;;;;;13.85;12.45;;;30.40;99.90;;;;;;5074816;28;20125;-92
2022/08/24 07:36:10;;;;;;;13.50;12.10;;;30.70;99.90;;;;;;5067706;28;20044;-91
2022/08/24 07:38:36;;;;;;;15.82;12.55;;;31.30;99.90;;;;;;5079491;28;20036;-91
2022/08/24 07:41:01;;;;;;;11.50;10.45;;;32.10;99.90;;;;;;5082919;28;20174;-91
2022/08/24 07:43:30;;;;;;;12.90;11.70;;;32.20;99.70;;;;;;5072782;28;20480;-93
2022/08/24 07:46:07;;;;;;;14.60;11.27;;;30.80;99.80;;;;;;5072976;28;20040;-93
2022/08/24 07:48:36;;;;;;;17.08;10.70;;;31.00;99.90;;;;;;5072765;28;20040;-93
2022/08/24 07:51:13;;;;;;;10.77;9.68;;;31.10;99.80;;;;;;5055215;28;20040;-89
2022/08/24 07:53:39;;;;;;;10.50;8.95;;;32.00;99.80;;;;;;5054712;28;20052;-89
2022/08/24 07:56:05;;;;;;;11.23;9.73;;;32.00;99.70;;;;;;5039259;28;20439;-90
2022/08/24 07:58:30;;;;;;;10.98;9.88;;;32.70;99.00;;;;;;5038304;28;20051;-89
2022/08/24 08:00:56;;;;;;;12.75;9.93;;;32.80;98.70;;;;;;5038775;28;20575;-90
2022/08/24 08:03:25;;;;;;;9.65;8.13;;;32.60;98.80;;;;;;5038184;28;20056;-90
2022/08/24 08:06:01;;;;;;;11.10;9.20;;;33.10;98.40;;;;;;5039180;28;20049;-91
2022/08/24 08:08:27;;;;;;;12.13;9.32;;;33.50;97.80;;;;;;5040917;28;20099;-92
2022/08/24 08:10:53;;;;;;;9.98;8.50;;;33.20;98.40;;;;;;5039132;28;20040;-91
2022/08/24 08:13:18;;;;;;;10.13;7.32;;;33.20;97.30;;;;;;5021907;28;20075;-91
2022/08/24 08:15:44;;;;;;;8.25;7.15;;;31.80;98.70;;;;;;5039084;28;20198;-90
2022/08/24 08:18:11;;;;;;;7.82;6.57;;;31.60;98.60;;;;;;5055440;28;20133;-90
2022/08/24 08:20:37;;;;;;;7.72;6.13;;;32.30;97.20;;;;;;5040986;28;20102;-90
2022/08/24 08:25:51;;;;;;;7.10;5.60;;;31.90;98.50;;;;;;5043308;28;20499;-91
2022/08/24 08:28:17;;;;;;;7.30;6.13;;;32.70;98.00;;;;;;5038232;28;20123;-88
2022/08/24 08:30:43;;;;;;;7.50;6.82;;;32.10;98.10;;;;;;5037426;28;20048;-90
2022/08/24 08:33:09;;;;;;;9.23;8.43;;;33.60;97.60;;;;;;5039306;28;20484;-91
2022/08/24 08:35:36;;;;;;;9.13;8.00;;;33.20;97.20;;;;;;5054789;28;20044;-92
2022/08/24 08:38:02;;;;;;;9.32;8.57;;;33.20;97.60;;;;;;5071364;28;20055;-92
2022/08/24 08:40:44;;;;;;;9.80;8.30;;;33.90;97.20;;;;;;5054228;28;20527;-91
2022/08/24 08:43:27;;;;;;;11.50;8.30;;;33.80;97.20;;;;;;5056098;28;20107;-91
2022/08/24 08:46:07;;;;;;;9.35;8.32;;;33.80;97.00;;;;;;5076676;28;20068;-90
2022/08/24 08:48:41;;;;;;;9.90;9.00;;;33.90;97.10;;;;;;5054501;28;20049;-90
2022/08/24 08:51:26;;;;;;;11.18;9.05;;;34.00;96.90;;;;;;5075590;28;20044;-90
2022/08/24 08:54:11;;;;;;;12.00;10.73;;;33.20;97.70;;;;;;5078077;28;20055;-93
2022/08/24 08:57:07;;;;;;;14.05;10.40;;;33.90;96.90;;;;;;5065443;28;20060;-92
2022/08/24 08:59:36;;;;;;;11.07;9.98;;;34.10;96.90;;;;;;5071935;28;20507;-93
2022/08/24 09:02:08;;;;;;;13.93;11.38;;;33.20;97.30;;;;;;5055161;28;20048;-91
2022/08/24 09:04:53;;;;;;;10.70;9.70;;;34.00;96.60;;;;;;5071677;28;20526;-92
2022/08/24 09:07:21;;;;;;;8.98;8.02;;;33.90;96.60;;;;;;5072028;28;20052;-91
2022/08/24 09:10:05;;;;;;;11.18;8.95;;;33.10;97.10;;;;;;5071885;28;20049;-90
2022/08/24 09:12:52;;;;;;;10.15;8.00;;;33.40;97.00;;;;;;5054779;28;20048;-91
2022/08/24 09:15:52;;;;;;;9.18;8.10;;;33.40;96.90;;;;;;5037824;28;20488;-91
2022/08/24 09:18:40;;;;;;;6.93;6.32;;;33.40;96.70;;;;;;5053595;28;20068;-90
2022/08/24 09:21:22;;;;;;;10.68;7.20;;;33.40;97.00;;;;;;5038393;28;20045;-92
2022/08/24 09:23:59;;;;;;;7.07;6.43;;;33.40;96.90;;;;;;5037959;28;20127;-89
2022/08/24 09:26:31;;;;;;;10.07;8.40;;;33.90;96.90;;;;;;5070072;28;20063;-90
2022/08/24 09:29:15;;;;;;;8.10;7.32;;;34.20;96.40;;;;;;5021437;28;20052;-89
2022/08/24 09:32:17;;;;;;;8.57;6.88;;;34.30;96.30;;;;;;5036677;28;20523;-90
2022/08/24 09:34:59;;;;;;;8.70;6.97;;;33.80;96.70;;;;;;5014167;28;20174;-90
2022/08/24 09:38:00;;;;;;;8.13;6.55;;;33.70;97.20;;;;;;5038703;28;20050;-89
2022/08/24 09:40:36;;;;;;;7.97;7.18;;;33.80;96.20;;;;;;5039092;28;20119;-96
2022/08/24 09:43:14;;;;;;;9.43;7.80;;;33.60;96.50;;;;;;5041824;28;20056;-94
2022/08/24 09:46:20;;;;;;;5.80;5.30;;;35.00;95.60;;;;;;5080034;28;20052;-92
2022/08/24 09:49:26;;;;;;;8.07;6.40;;;34.60;96.10;;;;;;5014785;28;20064;-91
2022/08/24 09:52:07;;;;;;;8.63;5.88;;;34.10;96.50;;;;;;5058193;28;20056;-91
2022/08/24 09:55:01;;;;;;;9.00;5.88;;;34.40;96.20;;;;;;5062650;28;20048;-93
2022/08/24 09:58:02;;;;;;;10.77;5.93;;;34.30;95.90;;;;;;5077123;28;20040;-94
2022/08/24 10:00:38;;;;;;;5.70;4.90;;;34.40;95.90;;;;;;5024078;28;20174;-91
2022/08/24 10:03:22;;;;;;;6.72;5.18;;;34.40;95.60;;;;;;5061280;28;20051;-95
2022/08/24 10:06:07;;;;;;;7.00;3.25;;;34.60;95.50;;;;;;5060918;28;20480;-94
2022/08/24 10:08:46;;;;;;;4.47;3.80;;;34.20;95.90;;;;;;5079630;28;20587;-92
2022/08/24 10:11:30;;;;;;;4.80;3.53;;;34.60;95.30;;;;;;5059937;28;20070;-92
2022/08/24 10:14:08;;;;;;;6.95;3.40;;;34.40;95.50;;;;;;5074707;28;20090;-94
2022/08/24 10:16:42;;;;;;;4.80;2.80;;;34.60;95.60;;;;;;5059812;28;20052;-91
2022/08/24 10:19:52;;;;;;;2.90;2.55;;;34.80;94.50;;;;;;5077118;28;20059;-94
2022/08/24 10:23:06;;;;;;;5.00;2.95;;;34.80;94.70;;;;;;5005993;28;20104;-94
2022/08/24 10:25:40;;;;;;;5.03;3.88;;;34.70;95.00;;;;;;4985337;28;20037;-94
2022/08/24 10:28:59;;;;;;;3.72;3.10;;;35.50;94.80;;;;;;5038005;28;20550;-96
2022/08/24 10:31:25;;;;;;;4.60;3.03;;;35.20;94.90;;;;;;4983789;28;20516;-94
2022/08/24 10:34:30;;;;;;;3.45;3.15;;;34.40;94.90;;;;;;5054486;28;20075;-94
2022/08/24 10:37:02;;;;;;;6.53;2.60;;;33.30;94.70;;;;;;5059185;28;20060;-93
2022/08/24 10:39:44;;;;;;;3.00;2.40;;;34.10;95.20;;;;;;5063739;28;20044;-92
2022/08/24 10:45:12;;;;;;;;;;;33.90;95.10;;;;;;5078813;28;20048;-94
2022/08/24 10:47:38;;;;;;;2.83;2.45;;;33.60;94.50;;;;;;5081406;28;19920;-89
2022/08/24 10:50:19;;;;;;;4.82;2.67;;;34.00;94.60;;;;;;5032183;28;20099;-93
2022/08/24 10:53:03;;;;;;;4.15;2.28;;;33.30;94.80;;;;;;5063938;28;20067;-92
2022/08/24 10:55:31;;;;;;;4.18;2.47;;;33.50;95.10;;;;;;5068456;28;20041;-90
2022/08/24 10:58:12;;;;;;;3.33;2.80;;;34.10;94.80;;;;;;5050052;28;20062;-89
2022/08/24 11:00:38;;;;;;;3.50;2.60;;;34.20;94.50;;;;;;5055100;28;20135;-92
2022/08/24 11:03:27;;;;;;;3.47;2.55;;;34.10;94.80;;;;;;5061058;28;20506;-91
2022/08/24 11:05:53;;;;;;;3.00;2.70;;;33.40;95.20;;;;;;5059807;28;20066;-89
2022/08/24 11:08:26;;;;;;;3.78;2.70;;;32.60;95.50;;;;;;5044102;28;20407;-93
2022/08/24 11:11:12;;;;;;;3.60;2.58;;;32.00;96.10;;;;;;5027830;28;20197;-94
2022/08/24 11:13:52;;;;;;;3.55;2.50;;;31.30;96.70;;;;;;5060728;28;20043;-91
2022/08/24 11:16:34;;;;;;;3.33;2.80;;;30.80;97.10;;;;;;5026884;28;20055;-90
2022/08/24 11:19:01;;;;;;;2.83;2.47;;;30.90;97.30;;;;;;5060034;28;20044;-90
2022/08/24 11:21:50;;;;;;;3.45;2.42;;;30.90;97.20;;;;;;5059507;28;20044;-92
2022/08/24 11:24:25;;;;;;;3.00;2.72;;;31.40;97.10;;;;;;5044384;28;20052;-92
2022/08/24 11:27:24;;;;;;;3.60;2.65;;;31.80;96.60;;;;;;5060104;28;20086;-90
2022/08/24 11:29:50;;;;;;;2.97;2.30;;;32.00;96.20;;;;;;5020631;28;20143;-91
2022/08/24 11:32:45;;;;;;;3.80;2.60;;;32.00;96.40;;;;;;5058118;28;20099;-90
2022/08/24 11:35:24;;;;;;;3.85;2.20;;;31.90;96.20;;;;;;5009272;28;20056;-90
2022/08/24 11:37:53;;;;;;;3.65;2.78;;;31.70;97.10;;;;;;5058271;28;20170;-88
2022/08/24 11:40:21;;;;;;;1.92;1.80;;;31.30;97.20;;;;;;5043065;28;20395;-89
2022/08/24 11:43:08;;;;;;;3.20;2.20;;;31.10;96.70;;;;;;5026227;28;20082;-88
2022/08/24 11:45:36;;;;;;;3.10;2.45;;;31.20;97.10;;;;;;5045870;28;20131;-90
2022/08/24 11:48:21;;;;;;;3.70;2.35;;;31.20;96.60;;;;;;5064455;28;20056;-89
2022/08/24 11:50:58;;;;;;;5.18;2.30;;;31.20;96.70;;;;;;5075088;28;20049;-85
2022/08/24 11:53:56;;;;;;;4.53;2.05;;;30.80;97.10;;;;;;5059370;28;20045;-91
2022/08/24 11:59:39;;;;;;;4.72;2.67;;;31.00;97.00;;;;;;5327174;22;20055;-92
2022/08/24 12:02:24;;;;;;;2.50;2.30;;;31.10;96.90;;;;;;5116595;28;20087;-93
2022/08/24 12:05:18;;;;;;;;;;;;;;;;;;;;;
2022/08/24 12:07:57;;;;;;;2.60;2.40;;;31.30;96.60;;;;;;5114966;28;20133;-94
2022/08/24 12:10:38;;;;;;;3.35;2.20;;;32.00;96.90;;;;;;5200974;22;20106;-93
2022/08/24 12:13:40;;;;;;;2.30;2.00;;;31.10;96.30;;;;;;5099401;28;20032;-92
2022/08/24 12:16:25;;;;;;;3.80;2.30;;;31.60;96.60;;;;;;5068668;28;20054;-94
2022/08/24 12:19:16;;;;;;;2.83;2.33;;;31.60;96.50;;;;;;5093863;28;20036;-91
2022/08/24 12:21:45;;;;;;;3.30;2.15;;;31.60;96.80;;;;;;5081141;28;20086;-94
2022/08/24 12:24:15;;;;;;;2.83;2.45;;;31.30;96.80;;;;;;5077167;28;20056;-95
2022/08/24 12:26:52;;;;;;;2.75;2.13;;;32.20;96.80;;;;;;5077371;28;20048;-94
2022/08/24 12:29:56;;;;;;;2.28;2.08;;;32.40;96.10;;;;;;5073999;28;20048;-91
2022/08/24 12:32:37;;;;;;;2.05;1.63;;;31.60;95.90;;;;;;5099666;28;20054;-93
2022/08/24 12:35:09;;;;;;;2.55;1.23;;;32.10;96.20;;;;;;5085526;28;20044;-91
2022/08/24 12:37:37;;;;;;;2.95;2.10;;;31.90;95.60;;;;;;5078073;28;20051;-92
2022/08/24 12:40:32;;;;;;;2.15;1.40;;;31.90;96.80;;;;;;5076990;28;20047;-93
2022/08/24 12:43:13;;;;;;;2.08;1.90;;;32.40;95.70;;;;;;5075343;28;20044;-93
2022/08/24 12:45:39;;;;;;;2.42;1.48;;;32.50;95.80;;;;;;5059446;28;20043;-95
2022/08/24 12:48:30;;;;;;;2.78;1.95;;;32.10;95.90;;;;;;5074316;28;20058;-90
2022/08/24 12:51:09;;;;;;;2.05;1.75;;;32.10;96.50;;;;;;5063966;28;20043;-90
2022/08/24 12:54:15;;;;;;;3.92;2.10;;;32.10;96.10;;;;;;5096454;28;20075;-88
2022/08/24 12:57:02;;;;;;;2.85;1.77;;;31.60;96.30;;;;;;5112758;28;20055;-89
2022/08/24 13:00:07;;;;;;;4.93;2.00;;;31.30;96.50;;;;;;5093960;28;20039;-89
2022/08/24 13:02:44;;;;;;;6.60;2.30;;;32.00;97.00;;;;;;5063002;28;20051;-90
2022/08/24 13:05:29;;;;;;;3.17;2.30;;;31.30;97.10;;;;;;5056700;28;20073;-90
2022/08/24 13:08:16;;;;;;;5.75;2.55;;;31.30;97.10;;;;;;5067020;28;20059;-88
2022/08/24 13:11:11;;;;;;;2.85;2.50;;;31.10;97.00;;;;;;5065869;28;20082;-88
2022/08/24 13:13:54;;;;;;;3.30;2.45;;;31.00;97.10;;;;;;5069859;28;20055;-90